createdAt,value
2022-11-18T00:02:13.407Z,3.38
2022-11-18T00:04:39.928Z,3.90
2022-11-18T00:07:06.327Z,4.00
2022-11-18T00:09:32.707Z,4.13
2022-11-18T00:12:17.810Z,4.47
2022-11-18T00:14:44.186Z,4.00
2022-11-18T00:17:10.543Z,4.53
2022-11-18T00:19:38.071Z,4.32
2022-11-18T00:22:05.941Z,4.38
2022-11-18T00:24:32.714Z,4.65
2022-11-18T00:26:59.269Z,4.20
2022-11-18T00:29:29.177Z,4.47
2022-11-18T00:31:55.920Z,4.32
2022-11-18T00:34:22.335Z,4.65
2022-11-18T00:36:48.977Z,4.85
2022-11-18T00:39:16.829Z,4.45
2022-11-18T00:42:02.450Z,4.70
2022-11-18T00:44:28.914Z,5.35
2022-11-18T00:46:55.366Z,4.40
2022-11-18T00:49:22.067Z,4.88
2022-11-18T00:51:48.469Z,4.35
2022-11-18T00:54:14.845Z,5.15
2022-11-18T00:56:41.246Z,5.07
2022-11-18T00:59:08.010Z,4.70
2022-11-18T01:01:34.474Z,4.78
2022-11-18T01:04:01.582Z,5.00
2022-11-18T01:06:28.134Z,4.82
2022-11-18T01:08:54.534Z,5.10
2022-11-18T01:11:39.629Z,4.80
2022-11-18T01:14:05.975Z,4.97
2022-11-18T01:16:32.302Z,4.40
2022-11-18T01:18:58.736Z,4.82
2022-11-18T01:21:25.172Z,5.30
2022-11-18T01:23:51.558Z,4.95
2022-11-18T01:26:18.537Z,5.38
2022-11-18T01:28:44.862Z,5.38
2022-11-18T01:31:12.797Z,5.28
2022-11-18T01:33:39.133Z,5.30
2022-11-18T01:36:05.676Z,5.22
2022-11-18T01:38:32.083Z,4.90
2022-11-18T01:40:58.440Z,5.47
2022-11-18T01:43:24.777Z,4.97
2022-11-18T01:45:53.807Z,5.07
2022-11-18T01:48:28.600Z,4.93
2022-11-18T01:51:03.305Z,4.82
2022-11-18T01:53:32.413Z,5.33
2022-11-18T01:56:00.496Z,5.43
2022-11-18T01:58:28.573Z,5.45
2022-11-18T02:00:54.997Z,5.28
2022-11-18T02:03:21.852Z,5.15
2022-11-18T02:05:49.174Z,5.50
2022-11-18T02:08:17.671Z,5.85
2022-11-18T02:10:44.025Z,5.55
2022-11-18T02:13:11.703Z,5.82
2022-11-18T02:15:43.678Z,5.60
2022-11-18T02:18:18.253Z,5.90
2022-11-18T02:20:46.554Z,5.32
2022-11-18T02:23:42.069Z,5.20
2022-11-18T02:26:28.402Z,5.35
2022-11-18T02:29:04.417Z,5.95
2022-11-18T02:31:32.832Z,5.60
2022-11-18T02:34:06.405Z,5.30
2022-11-18T02:36:38.983Z,5.97
2022-11-18T02:39:09.143Z,6.22
2022-11-18T02:41:36.598Z,5.53
2022-11-18T02:44:09.488Z,5.47
2022-11-18T02:46:38.469Z,6.43
2022-11-18T02:49:09.963Z,6.25
2022-11-18T02:51:37.007Z,6.30
2022-11-18T02:54:05.557Z,6.50
2022-11-18T02:56:33.316Z,6.38
2022-11-18T02:58:59.708Z,5.60
2022-11-18T03:01:27.421Z,5.78
2022-11-18T03:03:53.976Z,6.57
2022-11-18T03:06:36.880Z,6.47
2022-11-18T03:09:03.240Z,6.65
2022-11-18T03:11:30.894Z,6.50
2022-11-18T03:14:06.095Z,6.32
2022-11-18T03:16:36.424Z,6.20
2022-11-18T03:19:02.759Z,5.53
2022-11-18T03:21:36.250Z,7.40
2022-11-18T03:24:32.708Z,6.10
2022-11-18T03:29:34.400Z,6.55
2022-11-18T03:32:05.962Z,6.00
2022-11-18T03:34:37.661Z,6.20
2022-11-18T03:37:10.163Z,6.03
2022-11-18T03:39:39.078Z,6.10
2022-11-18T03:42:25.784Z,6.45
2022-11-18T03:44:54.274Z,6.13
2022-11-18T03:47:29.005Z,6.55
2022-11-18T03:50:06.262Z,5.80
2022-11-18T03:52:34.665Z,6.60
2022-11-18T03:55:03.373Z,6.43
2022-11-18T03:57:42.657Z,6.93
2022-11-18T04:00:10.958Z,6.50
2022-11-18T04:02:38.113Z,6.90
2022-11-18T04:05:06.104Z,7.25
2022-11-18T04:07:32.493Z,7.32
2022-11-18T04:10:09.217Z,7.30
2022-11-18T04:12:38.056Z,7.40
2022-11-18T04:15:04.674Z,7.05
2022-11-18T04:17:31.017Z,7.32
2022-11-18T04:19:57.425Z,7.43
2022-11-18T04:22:23.952Z,7.30
2022-11-18T04:24:50.331Z,7.45
2022-11-18T04:27:16.702Z,8.07
2022-11-18T04:29:43.094Z,8.10
2022-11-18T04:32:09.545Z,7.90
2022-11-18T04:34:35.881Z,7.65
2022-11-18T04:37:03.103Z,7.35
2022-11-18T04:39:29.493Z,7.28
2022-11-18T04:41:55.862Z,7.32
2022-11-18T04:44:26.642Z,7.55
2022-11-18T04:46:53.650Z,7.63
2022-11-18T04:49:20.319Z,8.05
2022-11-18T04:51:48.049Z,7.43
2022-11-18T04:54:15.171Z,7.38
2022-11-18T04:56:48.474Z,7.00
2022-11-18T04:59:16.891Z,7.05
2022-11-18T05:01:43.637Z,8.05
2022-11-18T05:04:14.264Z,7.18
2022-11-18T05:06:40.636Z,7.30
2022-11-18T05:09:07.011Z,7.30
2022-11-18T05:11:51.982Z,7.72
2022-11-18T05:14:18.319Z,7.45
2022-11-18T05:16:44.841Z,7.43
2022-11-18T05:19:11.205Z,8.00
2022-11-18T05:21:37.607Z,7.57
2022-11-18T05:24:04.871Z,7.35
2022-11-18T05:26:31.519Z,8.00
2022-11-18T05:28:57.901Z,7.18
2022-11-18T05:31:24.345Z,7.75
2022-11-18T05:33:50.754Z,8.02
2022-11-18T05:36:18.755Z,7.63
2022-11-18T05:38:45.494Z,8.43
2022-11-18T05:41:32.192Z,10.90
2022-11-18T05:43:59.024Z,11.27
2022-11-18T05:46:25.524Z,15.13
2022-11-18T05:48:51.974Z,13.32
2022-11-18T05:51:18.418Z,11.68
2022-11-18T05:53:44.783Z,10.88
2022-11-18T05:56:22.285Z,10.68
2022-11-18T05:58:48.677Z,9.45
2022-11-18T06:01:18.724Z,9.35
2022-11-18T06:03:45.352Z,10.63
2022-11-18T06:06:12.831Z,12.00
2022-11-18T06:08:41.145Z,13.20
2022-11-18T06:11:08.552Z,13.82
2022-11-18T06:13:37.604Z,14.80
2022-11-18T06:16:04.132Z,15.73
2022-11-18T06:18:31.569Z,17.05
2022-11-18T06:21:03.469Z,16.60
2022-11-18T06:23:32.488Z,17.95
2022-11-18T06:25:58.840Z,18.35
2022-11-18T06:28:25.791Z,18.65
2022-11-18T06:30:52.225Z,18.92
2022-11-18T06:33:18.612Z,19.52
2022-11-18T06:35:45.160Z,18.25
2022-11-18T06:38:11.550Z,18.17
2022-11-18T06:40:38.216Z,17.42
2022-11-18T06:43:26.684Z,17.20
2022-11-18T06:46:12.031Z,16.92
2022-11-18T06:48:38.409Z,16.75
2022-11-18T06:51:05.580Z,16.85
2022-11-18T06:53:33.258Z,16.48
2022-11-18T06:56:02.970Z,16.52
2022-11-18T06:58:29.276Z,17.13
2022-11-18T07:00:55.804Z,17.27
2022-11-18T07:03:22.174Z,16.65
2022-11-18T07:05:48.630Z,17.45
2022-11-18T07:08:15.033Z,17.75
2022-11-18T07:10:41.364Z,18.27
2022-11-18T07:13:07.705Z,17.75
2022-11-18T07:15:34.155Z,18.80
2022-11-18T07:18:00.542Z,17.63
2022-11-18T07:20:26.851Z,17.70
2022-11-18T07:22:53.866Z,18.42
2022-11-18T07:25:20.450Z,18.88
2022-11-18T07:27:47.424Z,17.65
2022-11-18T07:30:13.877Z,17.38
2022-11-18T07:32:40.192Z,17.90
2022-11-18T07:35:06.832Z,17.27
2022-11-18T07:37:33.143Z,15.00
2022-11-18T07:39:59.936Z,16.25
2022-11-18T07:42:26.391Z,17.23
2022-11-18T07:44:53.146Z,17.70
2022-11-18T07:47:19.491Z,17.70
2022-11-18T07:49:45.812Z,18.05
2022-11-18T07:52:12.154Z,16.23
2022-11-18T07:54:38.480Z,15.52
2022-11-18T07:57:04.808Z,15.00
2022-11-18T07:59:31.150Z,15.30
2022-11-18T08:01:57.885Z,16.50
2022-11-18T08:04:24.500Z,15.57
2022-11-18T08:06:50.890Z,15.75
2022-11-18T08:09:17.461Z,15.80
2022-11-18T08:11:44.023Z,16.00
2022-11-18T08:14:10.394Z,15.70
2022-11-18T08:16:36.864Z,16.73
2022-11-18T08:19:03.251Z,17.80
2022-11-18T08:21:29.665Z,15.57
2022-11-18T08:23:57.323Z,17.40
2022-11-18T08:26:24.991Z,16.52
2022-11-18T08:28:51.402Z,17.50
2022-11-18T08:31:19.512Z,16.30
2022-11-18T08:33:45.954Z,16.25
2022-11-18T08:36:20.962Z,15.30
2022-11-18T08:38:47.388Z,15.52
2022-11-18T08:41:14.560Z,15.18
2022-11-18T08:43:41.278Z,14.52
2022-11-18T08:46:07.614Z,14.27
2022-11-18T08:48:34.070Z,14.57
2022-11-18T08:51:00.551Z,12.82
2022-11-18T08:53:26.922Z,13.68
2022-11-18T08:55:59.774Z,13.63
2022-11-18T08:58:26.763Z,13.63
2022-11-18T09:00:53.525Z,13.73
2022-11-18T09:03:20.187Z,13.77
2022-11-18T09:05:46.555Z,13.85
2022-11-18T09:08:12.983Z,13.63
2022-11-18T09:10:39.441Z,12.90
2022-11-18T09:13:25.217Z,13.45
2022-11-18T09:15:52.148Z,12.35
2022-11-18T09:18:18.539Z,12.23
2022-11-18T09:20:53.441Z,13.93
2022-11-18T09:23:19.962Z,15.27
2022-11-18T09:25:46.297Z,13.57
2022-11-18T09:28:12.640Z,14.40
2022-11-18T09:30:39.114Z,15.20
2022-11-18T09:33:07.093Z,14.13
2022-11-18T09:35:34.012Z,14.02
2022-11-18T09:38:00.324Z,15.00
2022-11-18T09:40:26.943Z,15.32
2022-11-18T09:43:22.500Z,14.30
2022-11-18T09:45:54.634Z,14.68
2022-11-18T09:48:41.887Z,14.75
2022-11-18T09:51:09.922Z,13.93
2022-11-18T09:53:39.290Z,13.65
2022-11-18T09:56:08.340Z,14.25
2022-11-18T09:58:35.895Z,13.57
2022-11-18T10:01:02.804Z,13.70
2022-11-18T10:03:30.181Z,15.05
2022-11-18T10:05:58.802Z,15.02
2022-11-18T10:08:28.515Z,14.50
2022-11-18T10:10:57.890Z,14.73
2022-11-18T10:13:30.409Z,13.38
2022-11-18T10:16:00.480Z,14.55
2022-11-18T10:18:58.348Z,15.10
2022-11-18T10:21:45.316Z,14.15
2022-11-18T10:24:20.299Z,14.85
2022-11-18T10:26:47.250Z,14.13
2022-11-18T10:29:13.681Z,16.30
2022-11-18T10:31:52.553Z,17.10
2022-11-18T10:34:19.272Z,16.83
2022-11-18T10:36:58.675Z,17.92
2022-11-18T10:39:25.031Z,18.00
2022-11-18T10:41:58.821Z,17.73
2022-11-18T10:44:35.979Z,17.65
2022-11-18T10:47:28.482Z,18.00
2022-11-18T10:49:56.154Z,19.08
2022-11-18T10:52:22.616Z,19.17
2022-11-18T10:55:07.677Z,20.02
2022-11-18T10:57:36.263Z,19.83
2022-11-18T11:00:02.996Z,19.92
2022-11-18T11:02:39.731Z,20.35
2022-11-18T11:05:35.513Z,18.90
2022-11-18T11:08:28.944Z,19.27
2022-11-18T11:10:55.953Z,20.58
2022-11-18T11:13:24.102Z,17.77
2022-11-18T11:15:51.469Z,18.73
2022-11-18T11:18:39.723Z,19.88
2022-11-18T11:21:13.282Z,18.73
2022-11-18T11:23:39.998Z,17.92
2022-11-18T11:29:14.894Z,17.40
2022-11-18T11:31:41.455Z,18.50
2022-11-18T11:34:27.887Z,17.65
2022-11-18T11:37:09.388Z,18.30
2022-11-18T11:39:51.053Z,18.25
2022-11-18T11:42:26.536Z,18.02
2022-11-18T11:45:07.003Z,16.42
2022-11-18T11:47:57.177Z,16.55
2022-11-18T11:50:28.393Z,13.45
2022-11-18T11:53:13.672Z,12.82
2022-11-18T11:55:42.906Z,10.65
2022-11-18T11:58:19.054Z,11.25
2022-11-18T12:00:58.931Z,11.13
2022-11-18T12:03:37.582Z,11.73
2022-11-18T12:06:03.962Z,13.05
2022-11-18T12:08:32.208Z,14.50
2022-11-18T12:11:17.593Z,15.07
2022-11-18T12:13:52.268Z,16.45
2022-11-18T12:16:23.241Z,16.02
2022-11-18T12:18:55.737Z,15.95
2022-11-18T12:21:40.909Z,14.90
2022-11-18T12:24:19.536Z,15.52
2022-11-18T12:26:47.126Z,13.82
2022-11-18T12:29:19.748Z,14.73
2022-11-18T12:31:54.829Z,13.85
2022-11-18T12:34:24.362Z,13.43
2022-11-18T12:36:51.049Z,12.65
2022-11-18T12:39:23.502Z,12.45
2022-11-18T12:42:18.917Z,11.40
2022-11-18T12:44:46.550Z,11.10
2022-11-18T12:47:13.723Z,10.32
2022-11-18T12:50:06.565Z,10.77
2022-11-18T12:52:32.854Z,10.15
2022-11-18T12:55:03.020Z,9.32
2022-11-18T12:57:29.316Z,8.40
2022-11-18T12:59:55.830Z,8.05
2022-11-18T13:02:24.122Z,8.57
2022-11-18T13:05:09.052Z,8.15
2022-11-18T13:07:59.701Z,7.93
2022-11-18T13:10:29.433Z,7.10
2022-11-18T13:12:55.877Z,7.38
2022-11-18T13:15:41.166Z,7.40
2022-11-18T13:18:12.161Z,7.05
2022-11-18T13:20:39.591Z,6.85
2022-11-18T13:23:33.835Z,7.68
2022-11-18T13:26:04.476Z,7.53
2022-11-18T13:28:49.713Z,8.15
2022-11-18T13:31:34.882Z,7.85
2022-11-18T13:34:18.287Z,8.52
2022-11-18T13:36:45.251Z,8.55
2022-11-18T13:39:20.893Z,10.00
2022-11-18T13:41:57.727Z,10.32
2022-11-18T13:44:25.646Z,9.48
2022-11-18T13:46:54.215Z,10.77
2022-11-18T13:49:23.683Z,10.10
2022-11-18T13:51:51.658Z,11.23
2022-11-18T13:54:23.067Z,11.35
2022-11-18T13:56:49.717Z,11.77
2022-11-18T13:59:18.677Z,12.00
2022-11-18T14:01:52.884Z,11.65
2022-11-18T14:04:20.600Z,12.95
2022-11-18T14:06:46.933Z,12.18
2022-11-18T14:09:25.517Z,12.73
2022-11-18T14:12:00.268Z,13.98
2022-11-18T14:14:32.891Z,13.52
2022-11-18T14:17:14.638Z,13.57
2022-11-18T14:19:41.713Z,14.68
2022-11-18T14:22:16.144Z,16.65
2022-11-18T14:24:43.057Z,13.17
2022-11-18T14:27:28.440Z,17.27
2022-11-18T14:29:54.833Z,17.67
2022-11-18T14:32:21.550Z,17.98
2022-11-18T14:34:57.200Z,18.08
2022-11-18T14:37:23.809Z,19.60
2022-11-18T14:39:56.777Z,20.83
2022-11-18T14:42:23.803Z,20.05
2022-11-18T14:44:50.646Z,22.33
2022-11-18T14:47:26.219Z,22.70
2022-11-18T14:49:52.622Z,20.90
2022-11-18T14:52:19.039Z,21.77
2022-11-18T14:54:45.416Z,23.15
2022-11-18T14:57:13.986Z,24.50
2022-11-18T14:59:40.294Z,23.48
2022-11-18T15:02:12.829Z,23.23
2022-11-18T15:04:39.261Z,21.98
2022-11-18T15:07:05.713Z,23.33
2022-11-18T15:09:32.193Z,23.50
2022-11-18T15:11:58.502Z,22.52
2022-11-18T15:14:24.953Z,22.67
2022-11-18T15:16:51.358Z,22.55
2022-11-18T15:19:17.742Z,22.40
2022-11-18T15:21:45.364Z,22.77
2022-11-18T15:24:11.901Z,23.05
2022-11-18T15:26:42.742Z,23.85
2022-11-18T15:29:15.275Z,24.38
2022-11-18T15:31:41.604Z,23.15
2022-11-18T15:34:07.963Z,24.50
2022-11-18T15:36:34.381Z,24.52
2022-11-18T15:39:00.786Z,25.52
2022-11-18T15:41:28.526Z,24.75
2022-11-18T15:43:56.055Z,24.05
2022-11-18T15:46:23.399Z,24.85
2022-11-18T15:48:53.665Z,25.05
2022-11-18T15:51:20.648Z,27.27
2022-11-18T15:53:47.028Z,26.60
2022-11-18T15:56:19.237Z,25.98
2022-11-18T15:58:46.305Z,26.75
2022-11-18T16:01:12.743Z,26.27
2022-11-18T16:03:39.090Z,25.45
2022-11-18T16:06:05.600Z,27.10
2022-11-18T16:08:31.984Z,26.38
2022-11-18T16:11:17.088Z,26.75
2022-11-18T16:13:43.666Z,25.80
2022-11-18T16:16:23.459Z,27.10
2022-11-18T16:18:49.896Z,28.85
2022-11-18T16:21:16.234Z,28.83
2022-11-18T16:23:42.618Z,28.80
2022-11-18T16:26:08.934Z,30.38
2022-11-18T16:28:35.310Z,30.58
2022-11-18T16:31:20.194Z,28.63
2022-11-18T16:33:46.540Z,30.20
2022-11-18T16:36:12.887Z,30.98
2022-11-18T16:38:39.369Z,33.58
2022-11-18T16:41:25.786Z,33.10
2022-11-18T16:43:52.136Z,31.63
2022-11-18T16:46:18.603Z,30.90
2022-11-18T16:48:44.903Z,31.35
2022-11-18T16:51:21.786Z,31.92
2022-11-18T16:53:52.938Z,31.98
2022-11-18T16:56:20.206Z,31.70
2022-11-18T16:58:46.648Z,32.75
2022-11-18T17:01:26.179Z,32.78
2022-11-18T17:03:55.906Z,32.58
2022-11-18T17:06:23.037Z,32.65
2022-11-18T17:08:49.380Z,34.47
2022-11-18T17:11:15.928Z,32.33
2022-11-18T17:13:42.548Z,32.75
2022-11-18T17:16:09.838Z,31.30
2022-11-18T17:18:36.645Z,32.45
2022-11-18T17:21:12.923Z,31.58
2022-11-18T17:23:40.013Z,32.72
2022-11-18T17:26:07.257Z,32.67
2022-11-18T17:28:36.838Z,32.30
2022-11-18T17:31:12.780Z,31.77
2022-11-18T17:33:39.484Z,33.17
2022-11-18T17:36:07.036Z,31.33
2022-11-18T17:38:40.973Z,31.58
2022-11-18T17:41:08.259Z,32.22
2022-11-18T17:43:35.008Z,35.42
2022-11-18T17:46:01.854Z,33.30
2022-11-18T17:48:28.844Z,32.65
2022-11-18T17:50:55.286Z,33.58
2022-11-18T17:53:21.638Z,33.75
2022-11-18T17:55:48.015Z,32.50
2022-11-18T17:58:14.454Z,32.95
2022-11-18T18:00:40.884Z,30.33
2022-11-18T18:03:07.200Z,32.22
2022-11-18T18:05:33.578Z,31.25
2022-11-18T18:08:00.206Z,31.15
2022-11-18T18:10:27.538Z,30.15
2022-11-18T18:13:12.393Z,29.95
2022-11-18T18:15:38.814Z,22.80
2022-11-18T18:18:05.199Z,29.88
2022-11-18T18:20:31.638Z,31.50
2022-11-18T18:22:58.057Z,29.85
2022-11-18T18:25:24.434Z,30.55
2022-11-18T18:27:50.802Z,31.17
2022-11-18T18:30:17.499Z,30.77
2022-11-18T18:32:48.132Z,30.20
2022-11-18T18:35:17.474Z,29.10
2022-11-18T18:37:43.849Z,28.42
2022-11-18T18:40:10.478Z,27.08
2022-11-18T18:42:36.767Z,28.38
2022-11-18T18:45:22.135Z,27.58
2022-11-18T18:47:48.669Z,26.73
2022-11-18T18:50:15.124Z,26.13
2022-11-18T18:52:41.469Z,25.58
2022-11-18T18:55:07.940Z,26.90
2022-11-18T18:57:34.345Z,25.80
2022-11-18T19:00:00.695Z,26.92
2022-11-18T19:02:27.245Z,26.85
2022-11-18T19:04:53.626Z,28.33
2022-11-18T19:07:20.225Z,26.95
2022-11-18T19:09:46.647Z,26.92
2022-11-18T19:12:31.734Z,28.42
2022-11-18T19:14:58.252Z,20.23
2022-11-18T19:17:24.684Z,26.85
2022-11-18T19:20:09.664Z,30.23
2022-11-18T19:22:36.087Z,21.25
2022-11-18T19:25:02.407Z,28.40
2022-11-18T19:27:29.021Z,27.45
2022-11-18T19:29:55.364Z,30.55
2022-11-18T19:32:21.729Z,27.13
2022-11-18T19:34:48.132Z,27.25
2022-11-18T19:37:14.425Z,26.58
2022-11-18T19:39:40.782Z,26.67
2022-11-18T19:42:07.616Z,27.38
2022-11-18T19:44:33.967Z,26.15
2022-11-18T19:47:00.325Z,26.17
2022-11-18T19:49:26.712Z,24.58
2022-11-18T19:51:55.859Z,23.90
2022-11-18T19:54:22.204Z,24.80
2022-11-18T19:56:48.590Z,24.13
2022-11-18T19:59:14.995Z,23.45
2022-11-18T20:01:41.519Z,24.63
2022-11-18T20:04:08.182Z,22.40
2022-11-18T20:06:35.109Z,23.00
2022-11-18T20:09:01.584Z,23.15
2022-11-18T20:11:28.200Z,22.90
2022-11-18T20:13:54.603Z,21.83
2022-11-18T20:16:22.665Z,22.80
2022-11-18T20:18:52.951Z,20.75
2022-11-18T20:21:20.247Z,21.25
2022-11-18T20:23:54.709Z,20.65
2022-11-18T20:26:21.855Z,15.65
2022-11-18T20:28:52.968Z,18.90
2022-11-18T20:31:22.819Z,20.10
2022-11-18T20:33:50.391Z,19.95
2022-11-18T20:36:20.900Z,18.30
2022-11-18T20:38:50.997Z,18.70
2022-11-18T20:41:17.903Z,18.33
2022-11-18T20:43:44.636Z,18.92
2022-11-18T20:46:14.663Z,17.45
2022-11-18T20:48:45.231Z,16.42
2022-11-18T20:51:13.037Z,20.17
2022-11-18T20:53:41.931Z,15.57
2022-11-18T20:56:08.918Z,14.30
2022-11-18T20:58:35.470Z,13.23
2022-11-18T21:01:11.006Z,13.88
2022-11-18T21:03:37.789Z,13.13
2022-11-18T21:06:07.353Z,11.68
2022-11-18T21:08:37.387Z,11.88
2022-11-18T21:11:04.596Z,13.10
2022-11-18T21:13:49.716Z,12.20
2022-11-18T21:16:16.092Z,11.05
2022-11-18T21:18:42.442Z,11.38
2022-11-18T21:21:27.899Z,12.35
2022-11-18T21:23:57.822Z,11.55
2022-11-18T21:26:25.094Z,11.75
2022-11-18T21:28:53.883Z,10.95
2022-11-18T21:31:23.193Z,10.45
2022-11-18T21:33:50.347Z,11.20
2022-11-18T21:36:17.540Z,11.07
2022-11-18T21:38:43.917Z,9.50
2022-11-18T21:41:10.466Z,10.15
2022-11-18T21:44:03.843Z,10.68
2022-11-18T21:46:24.753Z,10.90
2022-11-18T21:48:55.726Z,9.43
2022-11-18T21:51:26.158Z,10.57
2022-11-18T21:53:52.532Z,10.02
2022-11-18T21:56:22.578Z,9.60
2022-11-18T21:58:49.449Z,10.38
2022-11-18T22:01:17.498Z,9.98
2022-11-18T22:03:45.304Z,9.55
2022-11-18T22:06:12.283Z,9.10
2022-11-18T22:08:39.381Z,9.50
2022-11-18T22:11:06.646Z,9.30
2022-11-18T22:13:32.999Z,9.18
2022-11-18T22:16:03.545Z,9.05
2022-11-18T22:18:31.251Z,8.85
2022-11-18T22:21:01.546Z,9.15
2022-11-18T22:23:28.850Z,9.40
2022-11-18T22:26:04.464Z,9.38
2022-11-18T22:28:30.879Z,8.82
2022-11-18T22:31:23.497Z,8.40
2022-11-18T22:33:50.657Z,9.00
2022-11-18T22:36:20.934Z,8.07
2022-11-18T22:38:47.476Z,8.93
2022-11-18T22:41:33.943Z,9.60
2022-11-18T22:44:06.743Z,8.73
2022-11-18T22:46:33.983Z,8.07
2022-11-18T22:49:00.432Z,8.63
2022-11-18T22:51:26.796Z,8.55
2022-11-18T22:54:09.689Z,9.63
2022-11-18T22:56:39.579Z,8.85
2022-11-18T22:59:05.944Z,8.43
2022-11-18T23:01:32.357Z,8.93
2022-11-18T23:03:58.706Z,8.85
2022-11-18T23:06:25.005Z,7.95
2022-11-18T23:08:51.583Z,8.77
2022-11-18T23:11:37.105Z,8.70
2022-11-18T23:14:04.711Z,9.23
2022-11-18T23:16:33.039Z,9.10
2022-11-18T23:18:59.955Z,8.95
2022-11-18T23:21:26.381Z,8.60
2022-11-18T23:23:53.108Z,8.70
2022-11-18T23:26:19.905Z,8.35
2022-11-18T23:28:46.231Z,8.98
2022-11-18T23:31:17.222Z,8.20
2022-11-18T23:33:43.594Z,9.65
2022-11-18T23:36:11.078Z,8.57
2022-11-18T23:38:37.733Z,8.55
2022-11-18T23:41:05.323Z,7.90
2022-11-18T23:43:32.319Z,8.48
2022-11-18T23:45:59.131Z,9.18
2022-11-18T23:48:26.365Z,8.23
2022-11-18T23:50:56.493Z,8.73
2022-11-18T23:53:23.596Z,8.55
2022-11-18T23:55:50.340Z,8.43
2022-11-18T23:58:17.323Z,8.52
